地図

経路データ

SID SEASON NUMBER BASIN SUBBASIN NAME ISO_TIME NATURE LAT LON WMO_WIND WMO_PRES WMO_AGENCY TRACK_TYPE DIST2LAND LANDFALL IFLAG USA_AGENCY USA_ATCF_ID USA_LAT USA_LON USA_RECORD USA_STATUS USA_WIND USA_PRES USA_SSHS USA_R34_NE USA_R34_SE USA_R34_SW USA_R34_NW USA_R50_NE USA_R50_SE USA_R50_SW USA_R50_NW USA_R64_NE USA_R64_SE USA_R64_SW USA_R64_NW USA_POCI USA_ROCI USA_RMW USA_EYE TOKYO_LAT TOKYO_LON TOKYO_GRADE TOKYO_WIND TOKYO_PRES TOKYO_R50_DIR TOKYO_R50_LONG TOKYO_R50_SHORT TOKYO_R30_DIR TOKYO_R30_LONG TOKYO_R30_SHORT TOKYO_LAND CMA_LAT CMA_LON CMA_CAT CMA_WIND CMA_PRES HKO_LAT HKO_LON HKO_CAT HKO_WIND HKO_PRES NEWDELHI_LAT NEWDELHI_LON NEWDELHI_GRADE NEWDELHI_WIND NEWDELHI_PRES NEWDELHI_CI NEWDELHI_DP NEWDELHI_POCI REUNION_LAT REUNION_LON REUNION_TYPE REUNION_WIND REUNION_PRES REUNION_TNUM REUNION_CI REUNION_RMW REUNION_R34_NE REUNION_R34_SE REUNION_R34_SW REUNION_R34_NW REUNION_R50_NE REUNION_R50_SE REUNION_R50_SW REUNION_R50_NW REUNION_R64_NE REUNION_R64_SE REUNION_R64_SW REUNION_R64_NW BOM_LAT BOM_LON BOM_TYPE BOM_WIND BOM_PRES BOM_TNUM BOM_CI BOM_RMW BOM_R34_NE BOM_R34_SE BOM_R34_SW BOM_R34_NW BOM_R50_NE BOM_R50_SE BOM_R50_SW BOM_R50_NW BOM_R64_NE BOM_R64_SE BOM_R64_SW BOM_R64_NW BOM_ROCI BOM_POCI BOM_EYE BOM_POS_METHOD BOM_PRES_METHOD NADI_LAT NADI_LON NADI_CAT NADI_WIND NADI_PRES WELLINGTON_LAT WELLINGTON_LON WELLINGTON_WIND WELLINGTON_PRES DS824_LAT DS824_LON DS824_STAGE DS824_WIND DS824_PRES TD9636_LAT TD9636_LON TD9636_STAGE TD9636_WIND TD9636_PRES TD9635_LAT TD9635_LON TD9635_WIND TD9635_PRES TD9635_ROCI NEUMANN_LAT NEUMANN_LON NEUMANN_CLASS NEUMANN_WIND NEUMANN_PRES MLC_LAT MLC_LON MLC_CLASS MLC_WIND MLC_PRES USA_GUST BOM_GUST BOM_GUST_PER REUNION_GUST REUNION_GUST_PER USA_SEAHGT USA_SEARAD_NE USA_SEARAD_SE USA_SEARAD_SW USA_SEARAD_NW STORM_SPEED STORM_DIR
1928042S19044 1928 2 SI MM NOT_NAMED 1928-02-11 00:00:00 TS -18.6000 44.4500 main 0 0 _________O____ -1 -17.2000 44.3000 TC 25 12 175
1928042S19044 1928 2 SI MM NOT_NAMED 1928-02-11 03:00:00 TS -19.1963 44.5112 main 0 0 _________P____ -1 -18.1426 44.4898 TC 25 12 173
1928042S19044 1928 2 SI MM NOT_NAMED 1928-02-11 06:00:00 TS -19.8000 44.6000 main 0 0 _________O____ -1 -19.1000 44.7000 TC 25 12 170
1928042S19044 1928 2 SI MM NOT_NAMED 1928-02-11 09:00:00 TS -20.4112 44.7350 main 0 0 _________P____ -1 -20.0725 44.9426 TC 25 12 167
1928042S19044 1928 2 SI MM NOT_NAMED 1928-02-11 12:00:00 TS -21.0000 44.9000 main 0 0 _________O____ -1 -21.0000 45.2000 TC 25 12 165
1928042S19044 1928 2 SI MM NOT_NAMED 1928-02-11 15:00:00 TS -21.5362 45.0678 main 0 0 _________P____ -1 -21.8224 45.4430 TC 25 11 163
1928042S19044 1928 2 SI MM NOT_NAMED 1928-02-11 18:00:00 TS -22.0500 45.2500 main 0 0 _________O____ -1 -22.6000 45.7000 TC 25 11 162
1928042S19044 1928 2 SI MM NOT_NAMED 1928-02-11 21:00:00 TS -22.6088 45.4536 main 0 0 _________P____ -1 -23.4675 46.0071 TC 25 11 161
1928042S19044 1928 2 SI MM NOT_NAMED 1928-02-12 00:00:00 TS -23.1000 45.6500 main 0 0 _________O____ -1 -24.2000 46.3000 TC 25 9 159
1928042S19044 1928 2 SI MM NOT_NAMED 1928-02-12 03:00:00 TS -23.4299 45.8041 main 0 0 _________P____ -1 -24.6173 46.5082 TC 25 7 155
1928042S19044 1928 2 SI MM NOT_NAMED 1928-02-12 06:00:00 TS -23.7000 45.9500 main 0 0 _________O____ -1 -24.9000 46.7000 TC 25 7 154
1928042S19044 1928 2 SI MM NOT_NAMED 1928-02-12 09:00:00 TS -24.0212 46.1250 main 0 0 _________P____ -1 -25.2500 46.9426 TC 25 7 154
1928042S19044 1928 2 SI MM NOT_NAMED 1928-02-12 12:00:00 TS -24.3500 46.3000 main 0 0 _________O____ -1 -25.6000 47.2000 TC 25 7 156
1928042S19044 1928 2 SI MM NOT_NAMED 1928-02-12 15:00:00 TS -24.6787 46.4538 main 0 0 _________P____ -1 -25.9575 47.4501 TC 25 9 154
1928042S19044 1928 2 SI MM NOT_NAMED 1928-02-12 18:00:00 TS -25.1857 46.7571 main 0 0 _________O____ -1 -26.3000 47.7000 TC 25 12 149
1928042S19044 1928 2 SI MM NOT_NAMED 1928-02-12 21:00:00 TS -25.7383 47.1493 main 63 63 _________P____ -1 -26.6075 47.9502 TC 25 15 145
1928042S19044 1928 2 SI MM NOT_NAMED 1928-02-13 00:00:00 TS -26.3800 47.6800 main 161 161 _________O____ -1 -26.9000 48.2000 TC 25 19 142
1928042S19044 1928 2 SI MM NOT_NAMED 1928-02-13 03:00:00 TS -27.2075 48.4501 main 278 278 _________P____ -1 -27.2075 48.4501 TC 25 14 141
1928042S19044 1928 2 SI MM NOT_NAMED 1928-02-13 06:00:00 TS -27.5000 48.7000 main 317 317 _________O____ -1 -27.5000 48.7000 TC 25 7 142
1928042S19044 1928 2 SI MM NOT_NAMED 1928-02-13 09:00:00 TS -27.7574 48.9427 main 355 355 _________P____ -1 -27.7574 48.9427 TC 25 7 138
1928042S19044 1928 2 SI MM NOT_NAMED 1928-02-13 12:00:00 TS -28.0000 49.2000 main 390 390 _________O____ -1 -28.0000 49.2000 TC 25 7 136
1928042S19044 1928 2 SI MM NOT_NAMED 1928-02-13 15:00:00 TS -28.2499 49.4851 main 425 425 _________P____ -1 -28.2499 49.4851 TC 25 7 133
1928042S19044 1928 2 SI MM NOT_NAMED 1928-02-13 18:00:00 TS -28.5000 49.8000 main 470 470 _________O____ -1 -28.5000 49.8000 TC 25 8 131
1928042S19044 1928 2 SI MM NOT_NAMED 1928-02-13 21:00:00 TS -28.7651 50.1574 main 520 520 _________P____ -1 -28.7651 50.1574 TC 25 8 129
1928042S19044 1928 2 SI MM NOT_NAMED 1928-02-14 00:00:00 TS -29.0000 50.5000 main 556 556 _________O____ -1 -29.0000 50.5000 TC 25 7 127
1928042S19044 1928 2 SI MM NOT_NAMED 1928-02-14 03:00:00 TS -29.1648 50.7578 main 592 592 _________P____ -1 -29.1648 50.7578 TC 25 5 125
1928042S19044 1928 2 SI MM NOT_NAMED 1928-02-14 06:00:00 TS -29.3000 51.0000 main 613 613 _________O____ -1 -29.3000 51.0000 TC 25 6 122
1928042S19044 1928 2 SI MM NOT_NAMED 1928-02-14 09:00:00 TS -29.4575 51.3000 main 649 649 _________P____ -1 -29.4575 51.3000 TC 25 6 120
1928042S19044 1928 2 SI MM NOT_NAMED 1928-02-14 12:00:00 TS -29.6000 51.6000 main 676 676 _________O____ -1 -29.6000 51.6000 TC 25 5 118
1928042S19044 1928 2 SI MM NOT_NAMED 1928-02-14 15:00:00 TS -29.7074 51.8502 main 705 705 _________P____ -1 -29.7074 51.8502 TC 25 5 115
1928042S19044 1928 2 SI MM NOT_NAMED 1928-02-14 18:00:00 TS -29.8000 52.1000 main 726 726 _________O____ -1 -29.8000 52.1000 TC 25 5 112
1928042S19044 1928 2 SI MM NOT_NAMED 1928-02-14 21:00:00 TS -29.8977 52.3873 main 755 755 _________P____ -1 -29.8977 52.3873 TC 25 6 111
1928042S19044 1928 2 SI MM NOT_NAMED 1928-02-15 00:00:00 TS -30.0000 52.7000 main 783 _________O____ -1 -30.0000 52.7000 TC 25 6 111

IBTrACS Databaseについて

本データベースは、米国NOAAが公開する1842年以降の世界の熱帯低気圧のベストトラックデータアーカイブInternational Best Track Archive for Climate Stewardship (IBTrACS)を、ウェブで閲覧しやすい形式に変換したものです。

最終更新日:2021-12-03